Myrtle Beach, South Carolina
Current Conditions -  °F | °C
As of 2:35 AM on Monday 22 Dec 2014 (Local Time) from KMYR Reporting Station
Overcast Overcast  
Wind Chill:   Ceiling: 500
Heat Index:   Visibility: 7mi
Dew Point:   Wind: 7mph
Humidity: 87%   Direction: 340°NNW
Pressure: 30.09"   Gusts: NA
Location:  33.69°N, 78.88°W
Report Text: KMYR 220735Z AUTO 34006KT 7SM OVC005 08/06 A3009 RMK AO1 P0001
Loading
Personal Weather Stations






























Interactive Weather Map New forecast layout! Learn more

10-Day Weather Forecast

Advertisements
Track Severe Weather on mobile